createdAt,value
2022-12-29T00:01:58.610Z,9.17
2022-12-29T00:05:02.227Z,9.03
2022-12-29T00:08:06.324Z,9.00
2022-12-29T00:11:13.369Z,9.02
2022-12-29T00:14:34.506Z,9.10
2022-12-29T00:17:38.240Z,9.17
2022-12-29T00:20:59.114Z,9.22
2022-12-29T00:24:34.772Z,9.53
2022-12-29T00:27:59.233Z,9.51
2022-12-29T00:31:42.022Z,9.54
2022-12-29T00:35:03.149Z,9.25
2022-12-29T00:38:27.615Z,9.40
2022-12-29T00:41:49.256Z,9.42
2022-12-29T00:44:54.350Z,9.62
2022-12-29T00:47:57.832Z,9.44
2022-12-29T00:51:00.372Z,9.40
2022-12-29T00:54:03.970Z,9.48
2022-12-29T00:57:09.734Z,9.63
2022-12-29T01:00:16.169Z,9.60
2022-12-29T01:03:20.629Z,9.76
2022-12-29T01:06:25.085Z,9.75
2022-12-29T01:09:46.023Z,9.72
2022-12-29T01:12:50.993Z,9.36
2022-12-29T01:15:56.838Z,9.08
2022-12-29T01:19:00.878Z,9.22
2022-12-29T01:22:04.976Z,9.37
2022-12-29T01:25:09.668Z,9.31
2022-12-29T01:28:16.508Z,9.55
2022-12-29T01:31:24.845Z,9.61
2022-12-29T01:34:30.514Z,9.47
2022-12-29T01:37:34.020Z,9.69
2022-12-29T01:40:46.037Z,9.42
2022-12-29T01:43:51.839Z,9.53
2022-12-29T01:46:59.226Z,9.67
2022-12-29T01:50:09.456Z,9.29
2022-12-29T01:53:18.419Z,9.25
2022-12-29T01:56:23.650Z,9.29
2022-12-29T01:59:32.414Z,9.25
2022-12-29T02:02:37.906Z,9.51
2022-12-29T02:05:47.185Z,9.60
2022-12-29T02:08:53.578Z,9.71
2022-12-29T02:12:00.817Z,9.90
2022-12-29T02:15:05.995Z,9.80
2022-12-29T02:18:24.653Z,9.83
2022-12-29T02:21:45.920Z,9.62
2022-12-29T02:25:12.589Z,9.71
2022-12-29T02:28:46.047Z,9.66
2022-12-29T02:31:56.783Z,9.69
2022-12-29T02:35:09.396Z,9.69
2022-12-29T02:38:23.620Z,9.88
2022-12-29T02:41:34.271Z,9.94
2022-12-29T02:44:49.442Z,10.00
2022-12-29T02:47:59.229Z,9.99
2022-12-29T02:51:05.884Z,9.85
2022-12-29T02:54:27.144Z,9.76
2022-12-29T02:57:33.193Z,9.80
2022-12-29T03:00:48.584Z,9.62
2022-12-29T03:04:13.290Z,9.78
2022-12-29T03:07:25.460Z,9.68
2022-12-29T03:10:37.879Z,9.35
2022-12-29T03:14:04.984Z,9.23
2022-12-29T03:17:17.502Z,9.06
2022-12-29T03:20:27.760Z,9.11
2022-12-29T03:23:35.245Z,9.33
2022-12-29T03:26:39.735Z,9.35
2022-12-29T03:29:48.420Z,9.27
2022-12-29T03:32:54.941Z,9.33
2022-12-29T03:36:07.195Z,9.27
2022-12-29T03:39:13.404Z,9.21
2022-12-29T03:42:22.360Z,8.99
2022-12-29T03:45:26.246Z,8.55
2022-12-29T03:48:30.039Z,8.69
2022-12-29T03:51:35.523Z,8.76
2022-12-29T03:54:42.200Z,8.75
2022-12-29T03:57:46.065Z,8.67
2022-12-29T04:00:54.712Z,8.58
2022-12-29T04:03:58.546Z,8.13
2022-12-29T04:07:04.421Z,8.06
2022-12-29T04:10:09.377Z,8.10
2022-12-29T04:13:13.606Z,7.90
2022-12-29T04:16:18.130Z,7.95
2022-12-29T04:19:22.290Z,7.99
2022-12-29T04:22:28.589Z,8.01
2022-12-29T04:25:33.751Z,8.27
2022-12-29T04:28:39.238Z,8.59
2022-12-29T04:31:54.201Z,8.29
2022-12-29T04:34:58.028Z,8.48
2022-12-29T04:38:03.463Z,8.45
2022-12-29T04:41:07.514Z,8.00
2022-12-29T04:44:13.254Z,7.90
2022-12-29T04:47:40.241Z,8.22
2022-12-29T04:51:18.737Z,8.43
2022-12-29T04:54:24.326Z,8.43
2022-12-29T04:57:36.332Z,8.50
2022-12-29T05:00:39.902Z,8.58
2022-12-29T05:03:43.856Z,8.60
2022-12-29T05:06:48.062Z,8.58
2022-12-29T05:09:53.224Z,8.69
2022-12-29T05:12:56.751Z,8.69
2022-12-29T05:16:00.550Z,8.63
2022-12-29T05:19:05.095Z,8.61
2022-12-29T05:22:09.912Z,8.80
2022-12-29T05:25:16.690Z,8.76
2022-12-29T05:28:31.416Z,8.78
2022-12-29T05:31:40.952Z,8.74
2022-12-29T05:34:44.690Z,8.55
2022-12-29T05:37:48.437Z,8.58
2022-12-29T05:40:53.737Z,8.59
2022-12-29T05:44:17.772Z,8.48
2022-12-29T05:47:21.956Z,8.37
2022-12-29T05:50:49.142Z,8.45
2022-12-29T05:53:55.075Z,8.42
2022-12-29T05:57:01.226Z,8.32
2022-12-29T06:00:06.525Z,8.25
2022-12-29T06:03:18.060Z,8.39
2022-12-29T06:06:22.014Z,8.21
2022-12-29T06:09:26.433Z,8.15
2022-12-29T06:12:32.617Z,8.31
2022-12-29T06:15:37.425Z,8.18
2022-12-29T06:18:45.520Z,8.33
2022-12-29T06:21:50.164Z,8.34
2022-12-29T06:24:54.062Z,8.25
2022-12-29T06:27:59.474Z,8.58
2022-12-29T06:31:04.061Z,8.86
2022-12-29T06:34:08.647Z,8.97
2022-12-29T06:37:14.363Z,9.08
2022-12-29T06:40:18.191Z,9.28
2022-12-29T06:43:52.480Z,9.58
2022-12-29T06:47:26.895Z,9.54
2022-12-29T06:50:30.650Z,9.43
2022-12-29T06:53:34.413Z,9.08
2022-12-29T06:56:38.322Z,9.21
2022-12-29T06:59:43.492Z,9.24
2022-12-29T07:02:47.685Z,9.20
2022-12-29T07:05:51.534Z,8.99
2022-12-29T07:08:56.426Z,9.03
2022-12-29T07:12:01.217Z,8.84
2022-12-29T07:15:07.091Z,8.72
2022-12-29T07:18:10.940Z,8.63
2022-12-29T07:21:14.748Z,8.81
2022-12-29T07:24:18.464Z,8.84
2022-12-29T07:27:22.361Z,9.46
2022-12-29T07:30:27.682Z,9.81
2022-12-29T07:33:31.787Z,9.65
2022-12-29T07:36:35.555Z,9.98
2022-12-29T07:39:39.599Z,10.16
2022-12-29T07:42:43.508Z,10.44
2022-12-29T07:45:48.882Z,10.40
2022-12-29T07:48:54.626Z,10.63
2022-12-29T07:51:58.428Z,10.75
2022-12-29T07:55:02.241Z,10.52
2022-12-29T07:58:06.087Z,11.01
2022-12-29T08:01:11.402Z,11.20
2022-12-29T08:04:15.231Z,11.29
2022-12-29T08:07:19.050Z,11.21
2022-12-29T08:10:22.793Z,11.37
2022-12-29T08:13:27.821Z,11.41
2022-12-29T08:16:33.710Z,11.77
2022-12-29T08:19:37.443Z,11.88
2022-12-29T08:22:41.146Z,12.07
2022-12-29T08:25:44.842Z,12.11
2022-12-29T08:28:48.724Z,12.06
2022-12-29T08:31:53.818Z,11.98
2022-12-29T08:34:57.961Z,12.19
2022-12-29T08:38:01.778Z,12.51
2022-12-29T08:41:05.835Z,12.61
2022-12-29T08:44:09.602Z,12.94
2022-12-29T08:47:14.890Z,12.82
2022-12-29T08:50:18.899Z,13.06
2022-12-29T08:53:22.743Z,13.37
2022-12-29T08:56:26.716Z,13.36
2022-12-29T08:59:33.512Z,13.48
2022-12-29T09:02:38.960Z,13.70
2022-12-29T09:05:42.857Z,13.79
2022-12-29T09:08:46.891Z,14.27
2022-12-29T09:11:50.601Z,14.26
2022-12-29T09:14:54.358Z,14.47
2022-12-29T09:17:59.611Z,14.45
2022-12-29T09:21:07.841Z,14.42
2022-12-29T09:24:11.501Z,14.37
2022-12-29T09:27:15.330Z,14.64
2022-12-29T09:30:19.211Z,14.78
2022-12-29T09:33:24.506Z,15.04
2022-12-29T09:36:28.300Z,15.18
2022-12-29T09:39:32.092Z,15.20
2022-12-29T09:42:41.525Z,15.16
2022-12-29T09:45:48.114Z,15.26
2022-12-29T09:49:00.251Z,15.44
2022-12-29T09:52:08.971Z,15.71
2022-12-29T09:55:17.071Z,16.00
2022-12-29T09:58:27.615Z,15.74
2022-12-29T10:01:35.336Z,15.98
2022-12-29T10:04:47.054Z,15.77
2022-12-29T10:07:59.883Z,15.67
2022-12-29T10:11:14.671Z,15.93
2022-12-29T10:14:35.571Z,16.05
2022-12-29T10:17:47.231Z,16.00
2022-12-29T10:20:57.512Z,16.14
2022-12-29T10:24:03.778Z,16.36
2022-12-29T10:27:13.230Z,16.17
2022-12-29T10:30:18.490Z,16.08
2022-12-29T10:33:26.654Z,15.88
2022-12-29T10:36:37.235Z,16.11
2022-12-29T10:39:47.780Z,16.39
2022-12-29T10:42:55.847Z,16.15
2022-12-29T10:46:04.794Z,16.17
2022-12-29T10:49:21.656Z,16.20
2022-12-29T10:52:29.309Z,16.44
2022-12-29T10:55:37.648Z,16.45
2022-12-29T10:58:49.320Z,16.63
2022-12-29T11:02:02.977Z,16.42
2022-12-29T11:05:17.402Z,15.69
2022-12-29T11:08:25.808Z,15.34
2022-12-29T11:11:36.155Z,15.86
2022-12-29T11:14:41.931Z,16.02
2022-12-29T11:17:47.347Z,15.69
2022-12-29T11:20:51.687Z,15.93
2022-12-29T11:24:00.651Z,15.71
2022-12-29T11:27:16.970Z,15.72
2022-12-29T11:30:26.813Z,15.66
2022-12-29T11:33:30.857Z,15.41
2022-12-29T11:36:37.440Z,14.87
2022-12-29T11:39:47.967Z,15.45
2022-12-29T11:42:55.001Z,15.56
2022-12-29T11:45:59.031Z,15.01
2022-12-29T11:49:05.391Z,15.81
2022-12-29T11:52:10.618Z,16.27
2022-12-29T11:55:24.316Z,16.33
2022-12-29T11:58:33.779Z,16.10
2022-12-29T12:01:41.457Z,16.14
2022-12-29T12:04:45.424Z,15.73
2022-12-29T12:07:52.213Z,15.43
2022-12-29T12:11:06.691Z,14.81
2022-12-29T12:14:22.499Z,14.99
2022-12-29T12:17:55.323Z,14.96
2022-12-29T12:21:06.804Z,15.24
2022-12-29T12:24:37.360Z,15.61
2022-12-29T12:27:51.271Z,15.45
2022-12-29T12:31:00.575Z,15.44
2022-12-29T12:34:09.358Z,15.56
2022-12-29T12:37:37.897Z,15.55
2022-12-29T12:41:02.066Z,15.74
2022-12-29T12:44:20.997Z,15.64
2022-12-29T12:47:47.660Z,15.46
2022-12-29T12:50:57.743Z,15.50
2022-12-29T12:54:14.626Z,15.33
2022-12-29T12:57:27.868Z,15.37
2022-12-29T13:00:40.522Z,15.19
2022-12-29T13:03:57.485Z,14.78
2022-12-29T13:07:11.804Z,14.82
2022-12-29T13:10:25.889Z,14.85
2022-12-29T13:13:47.801Z,14.98
2022-12-29T13:17:04.240Z,14.67
2022-12-29T13:20:22.423Z,14.74
2022-12-29T13:23:33.318Z,14.77
2022-12-29T13:26:44.256Z,14.86
2022-12-29T13:29:58.885Z,14.78
2022-12-29T13:33:21.074Z,14.47
2022-12-29T13:36:32.099Z,14.40
2022-12-29T13:39:39.771Z,14.47
2022-12-29T13:42:44.668Z,14.54
2022-12-29T13:45:52.656Z,14.53
2022-12-29T13:49:04.023Z,14.56
2022-12-29T13:52:17.867Z,14.48
2022-12-29T13:55:29.154Z,14.53
2022-12-29T13:58:37.581Z,14.32
2022-12-29T14:01:48.359Z,14.20
2022-12-29T14:05:02.463Z,13.70
2022-12-29T14:08:17.410Z,13.49
2022-12-29T14:11:25.958Z,13.50
2022-12-29T14:14:33.098Z,13.32
2022-12-29T14:17:37.479Z,13.44
2022-12-29T14:20:52.303Z,13.20
2022-12-29T14:23:56.308Z,13.23
2022-12-29T14:26:59.992Z,13.28
2022-12-29T14:30:03.786Z,13.18
2022-12-29T14:33:16.000Z,13.10
2022-12-29T14:36:29.241Z,13.13
2022-12-29T14:39:39.858Z,13.07
2022-12-29T14:42:44.642Z,12.99
2022-12-29T14:45:56.927Z,12.98
2022-12-29T14:49:02.395Z,12.92
2022-12-29T14:52:18.324Z,12.82
2022-12-29T14:55:39.822Z,12.83
2022-12-29T14:58:50.277Z,12.77
2022-12-29T15:01:56.756Z,12.73
2022-12-29T15:05:03.522Z,12.60
2022-12-29T15:08:10.099Z,12.62
2022-12-29T15:11:16.910Z,12.58
2022-12-29T15:14:32.673Z,12.56
2022-12-29T15:17:38.183Z,12.57
2022-12-29T15:20:41.889Z,12.42
2022-12-29T15:23:49.247Z,12.41
2022-12-29T15:26:55.941Z,12.36
2022-12-29T15:30:03.100Z,12.33
2022-12-29T15:33:20.948Z,12.22
2022-12-29T15:36:26.283Z,12.20
2022-12-29T15:39:33.542Z,12.18
2022-12-29T15:42:55.300Z,12.06
2022-12-29T15:45:59.257Z,12.05
2022-12-29T15:49:08.487Z,11.96
2022-12-29T15:52:13.059Z,11.97
2022-12-29T15:55:27.463Z,12.06
2022-12-29T15:58:33.010Z,11.94
2022-12-29T16:01:38.596Z,11.94
2022-12-29T16:05:09.017Z,11.94
2022-12-29T16:08:26.859Z,11.84
2022-12-29T16:11:36.729Z,11.85
2022-12-29T16:14:45.631Z,11.81
2022-12-29T16:17:51.971Z,11.75
2022-12-29T16:20:56.884Z,11.76
2022-12-29T16:24:04.353Z,11.72
2022-12-29T16:27:15.758Z,11.63
2022-12-29T16:30:27.945Z,11.58
2022-12-29T16:33:42.530Z,11.59
2022-12-29T16:36:56.489Z,11.54
2022-12-29T16:40:29.311Z,11.55
2022-12-29T16:43:35.987Z,11.55
2022-12-29T16:46:46.700Z,11.54
2022-12-29T16:49:54.868Z,11.67
2022-12-29T16:52:58.689Z,11.52
2022-12-29T16:56:06.470Z,11.46
2022-12-29T16:59:30.366Z,11.51
2022-12-29T17:02:46.348Z,11.28
2022-12-29T17:05:55.521Z,11.29
2022-12-29T17:09:01.216Z,11.42
2022-12-29T17:12:11.194Z,11.21
2022-12-29T17:15:25.018Z,11.18
2022-12-29T17:18:29.338Z,11.12
2022-12-29T17:21:33.146Z,11.02
2022-12-29T17:24:37.454Z,11.02
2022-12-29T17:27:45.703Z,11.11
2022-12-29T17:30:51.671Z,11.07
2022-12-29T17:33:57.061Z,11.04
2022-12-29T17:37:00.882Z,11.00
2022-12-29T17:40:06.586Z,10.86
2022-12-29T17:43:15.143Z,10.87
2022-12-29T17:46:20.707Z,10.89
2022-12-29T17:49:24.451Z,10.89
2022-12-29T17:52:28.378Z,10.96
2022-12-29T17:55:37.721Z,10.91
2022-12-29T17:58:43.883Z,10.89
2022-12-29T18:01:50.471Z,10.85
2022-12-29T18:04:55.061Z,10.66
2022-12-29T18:08:00.700Z,10.84
2022-12-29T18:11:05.303Z,10.76
2022-12-29T18:14:13.988Z,10.70
2022-12-29T18:17:19.185Z,10.67
2022-12-29T18:20:22.972Z,10.69
2022-12-29T18:23:28.131Z,10.60
2022-12-29T18:26:35.909Z,10.50
2022-12-29T18:29:40.732Z,10.58
2022-12-29T18:32:46.188Z,10.67
2022-12-29T18:35:54.715Z,10.80
2022-12-29T18:38:58.510Z,10.72
2022-12-29T18:42:02.402Z,10.62
2022-12-29T18:45:17.618Z,10.63
2022-12-29T18:48:23.105Z,10.31
2022-12-29T18:51:27.720Z,10.28
2022-12-29T18:54:33.253Z,10.35
2022-12-29T18:57:37.448Z,10.22
2022-12-29T19:00:41.804Z,10.36
2022-12-29T19:03:47.111Z,10.51
2022-12-29T19:06:51.559Z,10.40
2022-12-29T19:09:55.305Z,10.47
2022-12-29T19:12:59.052Z,10.39
2022-12-29T19:16:02.985Z,10.46
2022-12-29T19:19:09.633Z,10.35
2022-12-29T19:22:13.864Z,10.26
2022-12-29T19:25:17.636Z,10.01
2022-12-29T19:28:23.499Z,9.89
2022-12-29T19:31:27.404Z,9.91
2022-12-29T19:34:32.734Z,9.76
2022-12-29T19:37:40.234Z,9.87
2022-12-29T19:40:45.024Z,9.75
2022-12-29T19:43:48.787Z,9.68
2022-12-29T19:46:52.786Z,9.64
2022-12-29T19:49:58.133Z,9.82
2022-12-29T19:53:05.326Z,9.76
2022-12-29T19:56:10.619Z,9.35
2022-12-29T19:59:14.555Z,9.48
2022-12-29T20:02:21.442Z,9.48
2022-12-29T20:05:26.759Z,9.66
2022-12-29T20:08:30.576Z,9.57
2022-12-29T20:11:34.279Z,9.73
2022-12-29T20:14:38.357Z,9.57
2022-12-29T20:18:13.858Z,9.68
2022-12-29T20:21:09.930Z,9.82
2022-12-29T20:24:13.749Z,9.80
2022-12-29T20:27:17.576Z,9.91
2022-12-29T20:30:21.625Z,9.59
2022-12-29T20:33:25.425Z,9.80
2022-12-29T20:36:33.673Z,9.72
2022-12-29T20:39:38.180Z,9.64
2022-12-29T20:42:42.005Z,9.75
2022-12-29T20:45:46.249Z,9.83
2022-12-29T20:48:50.175Z,9.79
2022-12-29T20:52:10.920Z,9.65
2022-12-29T20:55:14.645Z,9.61
2022-12-29T20:58:26.001Z,9.65
2022-12-29T21:01:30.301Z,9.48
2022-12-29T21:04:57.672Z,9.01
2022-12-29T21:08:00.273Z,8.89
2022-12-29T21:11:04.144Z,8.24
2022-12-29T21:14:07.900Z,8.66
2022-12-29T21:17:11.691Z,8.87
2022-12-29T21:20:20.432Z,8.79
2022-12-29T21:23:25.879Z,8.85
2022-12-29T21:26:29.627Z,9.02
2022-12-29T21:29:33.498Z,9.00
2022-12-29T21:32:37.374Z,9.01
2022-12-29T21:35:41.187Z,8.83
2022-12-29T21:38:46.481Z,8.90
2022-12-29T21:41:50.190Z,8.88
2022-12-29T21:45:16.635Z,8.74
2022-12-29T21:48:25.232Z,8.28
2022-12-29T21:51:46.389Z,8.53
2022-12-29T21:55:05.289Z,8.62
2022-12-29T21:58:27.550Z,8.69
2022-12-29T22:01:51.407Z,8.70
2022-12-29T22:05:12.611Z,8.62
2022-12-29T22:08:33.648Z,8.72
2022-12-29T22:11:56.026Z,8.79
2022-12-29T22:14:59.794Z,8.72
2022-12-29T22:18:04.266Z,8.69
2022-12-29T22:21:09.335Z,8.63
2022-12-29T22:24:13.079Z,8.73
2022-12-29T22:27:18.159Z,8.64
2022-12-29T22:30:22.354Z,8.79
2022-12-29T22:33:26.097Z,8.66
2022-12-29T22:36:30.660Z,8.79
2022-12-29T22:39:34.376Z,8.44
2022-12-29T22:42:40.144Z,8.52
2022-12-29T22:45:43.860Z,8.64
2022-12-29T22:48:47.685Z,8.37
2022-12-29T22:51:52.157Z,8.47
2022-12-29T22:54:57.384Z,8.62
2022-12-29T22:58:05.462Z,8.65
2022-12-29T23:01:09.368Z,8.65
2022-12-29T23:04:59.176Z,8.70
2022-12-29T23:07:37.392Z,8.65
2022-12-29T23:10:41.157Z,8.60
2022-12-29T23:13:47.028Z,8.63
2022-12-29T23:16:50.950Z,8.39
2022-12-29T23:19:55.346Z,8.32
2022-12-29T23:22:59.065Z,8.47
2022-12-29T23:26:02.769Z,8.42
2022-12-29T23:29:09.945Z,8.31
2022-12-29T23:32:13.688Z,8.35
2022-12-29T23:35:17.631Z,8.03
2022-12-29T23:38:21.367Z,8.18
2022-12-29T23:41:25.233Z,8.05
2022-12-29T23:44:30.309Z,8.02
2022-12-29T23:47:33.998Z,8.16
2022-12-29T23:50:41.569Z,8.01
2022-12-29T23:53:46.615Z,7.99
2022-12-29T23:56:50.520Z,8.02
2022-12-29T23:59:55.591Z,7.83
